createdAt,value
2018-06-14T00:00:22.281Z,69.04
2018-06-14T00:02:53.325Z,68.76
2018-06-14T00:05:24.335Z,68.34
2018-06-14T00:07:55.414Z,69.88
2018-06-14T00:10:26.534Z,70.08
2018-06-14T00:12:57.758Z,70.51
2018-06-14T00:15:28.700Z,71.26
2018-06-14T00:17:59.685Z,70.90
2018-06-14T00:20:30.799Z,69.67
2018-06-14T00:23:01.858Z,70.37
2018-06-14T00:25:32.949Z,70.96
2018-06-14T00:28:03.934Z,71.68
2018-06-14T00:30:35.284Z,71.52
2018-06-14T00:33:06.424Z,70.86
2018-06-14T00:35:37.400Z,71.12
2018-06-14T00:38:08.584Z,71.22
2018-06-14T00:40:40.850Z,71.21
2018-06-14T00:43:12.096Z,71.86
2018-06-14T00:45:43.184Z,72.11
2018-06-14T00:48:14.278Z,72.12
2018-06-14T00:50:46.114Z,72.71
2018-06-14T00:53:17.188Z,72.99
2018-06-14T00:55:48.362Z,73.42
2018-06-14T00:58:20.172Z,74.32
2018-06-14T01:00:51.213Z,74.38
2018-06-14T01:03:21.811Z,74.06
2018-06-14T01:05:52.851Z,74.55
2018-06-14T01:08:23.837Z,74.52
2018-06-14T01:10:55.089Z,75.00
2018-06-14T01:13:26.293Z,74.11
2018-06-14T01:15:58.454Z,73.64
2018-06-14T01:18:29.210Z,74.45
2018-06-14T01:21:00.513Z,74.19
2018-06-14T01:23:31.493Z,72.06
2018-06-14T01:26:02.536Z,71.61
2018-06-14T01:28:33.726Z,70.53
2018-06-14T01:31:05.072Z,70.73
2018-06-14T01:33:35.969Z,70.17
2018-06-14T01:36:07.075Z,70.12
2018-06-14T01:38:38.130Z,69.30
2018-06-14T01:41:10.157Z,68.79
2018-06-14T01:43:41.115Z,69.46
2018-06-14T01:46:12.310Z,69.82
2018-06-14T01:48:43.317Z,69.28
2018-06-14T01:51:14.399Z,69.39
2018-06-14T01:53:45.442Z,68.94
2018-06-14T01:56:15.942Z,69.36
2018-06-14T01:58:46.830Z,70.02
2018-06-14T02:01:18.057Z,69.34
2018-06-14T02:03:49.548Z,69.32
2018-06-14T02:06:21.591Z,70.25
2018-06-14T02:08:53.268Z,70.37
2018-06-14T02:11:25.195Z,70.29
2018-06-14T02:13:56.497Z,70.18
2018-06-14T02:16:28.636Z,69.78
2018-06-14T02:18:59.130Z,70.55
2018-06-14T02:21:31.049Z,70.85
2018-06-14T02:24:01.946Z,70.97
2018-06-14T02:26:34.145Z,71.49
2018-06-14T02:29:05.310Z,72.01
2018-06-14T02:31:36.392Z,72.62
2018-06-14T02:34:07.229Z,73.35
2018-06-14T02:36:38.098Z,73.48
2018-06-14T02:39:09.330Z,73.43
2018-06-14T02:41:40.392Z,73.35
2018-06-14T02:44:11.605Z,73.31
2018-06-14T02:46:42.332Z,73.49
2018-06-14T02:49:12.867Z,74.53
2018-06-14T02:51:43.395Z,74.76
2018-06-14T02:54:14.507Z,74.70
2018-06-14T02:56:45.491Z,75.44
2018-06-14T02:59:17.274Z,76.03
2018-06-14T03:01:48.328Z,75.80
2018-06-14T03:04:19.551Z,76.12
2018-06-14T03:06:50.869Z,76.04
2018-06-14T03:09:21.814Z,75.42
2018-06-14T03:11:53.129Z,74.66
2018-06-14T03:14:24.089Z,74.79
2018-06-14T03:16:56.239Z,74.23
2018-06-14T03:19:28.261Z,74.72
2018-06-14T03:22:00.389Z,75.26
2018-06-14T03:24:31.474Z,75.35
2018-06-14T03:27:02.246Z,75.61
2018-06-14T03:29:33.220Z,75.70
2018-06-14T03:32:04.831Z,75.88
2018-06-14T03:34:36.932Z,76.44
2018-06-14T03:37:07.595Z,76.75
2018-06-14T03:39:39.067Z,77.31
2018-06-14T03:42:13.513Z,76.33
2018-06-14T03:44:44.583Z,77.06
2018-06-14T03:47:16.709Z,76.97
2018-06-14T03:49:47.871Z,77.45
2018-06-14T03:52:18.746Z,77.04
2018-06-14T03:54:49.662Z,76.51
2018-06-14T03:57:21.958Z,76.44
2018-06-14T03:59:53.068Z,76.48
2018-06-14T04:02:24.401Z,76.78
2018-06-14T04:04:55.646Z,76.71
2018-06-14T04:07:27.111Z,76.95
2018-06-14T04:09:58.078Z,76.09
2018-06-14T04:12:29.235Z,76.28
2018-06-14T04:15:00.217Z,75.69
2018-06-14T04:17:31.429Z,75.56
2018-06-14T04:20:02.372Z,75.40
2018-06-14T04:22:33.337Z,76.02
2018-06-14T04:25:04.570Z,75.33
2018-06-14T04:27:36.596Z,75.92
2018-06-14T04:30:09.253Z,77.03
2018-06-14T04:32:41.467Z,76.12
2018-06-14T04:35:13.433Z,76.16
2018-06-14T04:37:44.453Z,77.12
2018-06-14T04:40:15.576Z,77.45
2018-06-14T04:42:46.507Z,76.09
2018-06-14T04:45:17.794Z,76.84
2018-06-14T04:47:48.839Z,76.28
2018-06-14T04:50:19.929Z,75.78
2018-06-14T04:52:51.089Z,74.51
2018-06-14T04:55:22.532Z,73.10
2018-06-14T04:57:53.611Z,72.13
2018-06-14T05:00:24.763Z,71.25
2018-06-14T05:02:55.752Z,71.59
2018-06-14T05:05:26.323Z,71.65
2018-06-14T05:07:58.175Z,71.09
2018-06-14T05:10:29.159Z,71.15
2018-06-14T05:13:00.256Z,70.76
2018-06-14T05:15:31.304Z,71.05
2018-06-14T05:18:02.474Z,68.68
2018-06-14T05:20:33.567Z,69.54
2018-06-14T05:23:05.552Z,69.47
2018-06-14T05:25:36.634Z,70.81
2018-06-14T05:28:07.739Z,70.84
2018-06-14T05:30:38.857Z,71.37
2018-06-14T05:33:09.875Z,70.51
2018-06-14T05:35:41.233Z,70.78
2018-06-14T05:38:13.668Z,69.94
2018-06-14T05:40:45.628Z,70.02
2018-06-14T05:43:16.680Z,68.97
2018-06-14T05:45:47.643Z,67.25
2018-06-14T05:48:18.629Z,67.24
2018-06-14T05:50:50.472Z,65.78
2018-06-14T05:53:20.945Z,66.14
2018-06-14T05:55:51.956Z,63.63
2018-06-14T05:58:22.810Z,63.90
2018-06-14T06:00:53.862Z,62.28
2018-06-14T06:03:24.992Z,63.36
2018-06-14T06:05:55.878Z,63.86
2018-06-14T06:08:26.932Z,62.66
2018-06-14T06:10:57.688Z,63.82
2018-06-14T06:13:29.007Z,64.42
2018-06-14T06:16:00.487Z,64.19
2018-06-14T06:18:31.399Z,64.38
2018-06-14T06:21:02.047Z,63.40
2018-06-14T06:23:33.072Z,61.67
2018-06-14T06:26:04.138Z,62.64
2018-06-14T06:28:36.342Z,62.27
2018-06-14T06:31:07.554Z,61.70
2018-06-14T06:33:38.861Z,61.34
2018-06-14T06:36:10.336Z,62.42
2018-06-14T06:38:41.066Z,63.67
2018-06-14T06:41:12.090Z,62.65
2018-06-14T06:43:43.335Z,62.74
2018-06-14T06:46:14.748Z,62.22
2018-06-14T06:48:46.301Z,62.32
2018-06-14T06:51:17.391Z,62.12
2018-06-14T06:53:48.269Z,61.77
2018-06-14T06:56:19.330Z,61.07
2018-06-14T06:58:50.477Z,60.54
2018-06-14T07:01:21.806Z,61.50
2018-06-14T07:03:52.869Z,59.87
2018-06-14T07:06:25.444Z,59.56
2018-06-14T07:08:56.617Z,60.34
2018-06-14T07:11:28.394Z,60.07
2018-06-14T07:13:59.464Z,59.23
2018-06-14T07:16:30.442Z,58.52
2018-06-14T07:19:01.401Z,58.90
2018-06-14T07:21:32.897Z,57.29
2018-06-14T07:24:04.163Z,58.31
2018-06-14T07:26:36.192Z,57.58
2018-06-14T07:29:07.240Z,57.70
2018-06-14T07:31:38.334Z,55.17
2018-06-14T07:34:09.493Z,53.18
2018-06-14T07:36:40.704Z,51.37
2018-06-14T07:39:12.962Z,53.25
2018-06-14T07:41:45.203Z,53.06
2018-06-14T07:44:16.203Z,50.45
2018-06-14T07:46:50.087Z,51.28
2018-06-14T07:49:21.592Z,52.73
2018-06-14T07:51:53.680Z,50.24
2018-06-14T07:54:24.769Z,50.64
2018-06-14T07:56:55.865Z,50.33
2018-06-14T07:59:26.886Z,48.71
2018-06-14T08:01:58.651Z,46.25
2018-06-14T08:04:30.241Z,47.22
2018-06-14T08:07:01.283Z,47.93
2018-06-14T08:09:32.064Z,49.62
2018-06-14T08:12:03.131Z,48.92
2018-06-14T08:14:33.871Z,48.49
2018-06-14T08:17:05.121Z,47.65
2018-06-14T08:19:36.154Z,47.75
2018-06-14T08:22:07.249Z,49.29
2018-06-14T08:24:39.117Z,49.08
2018-06-14T08:27:10.055Z,45.12
2018-06-14T08:29:40.840Z,42.14
2018-06-14T08:32:11.806Z,43.89
2018-06-14T08:34:42.810Z,45.22
2018-06-14T08:37:13.729Z,46.83
2018-06-14T08:39:44.749Z,45.92
2018-06-14T08:42:15.896Z,45.01
2018-06-14T08:44:46.882Z,44.23
2018-06-14T08:47:17.610Z,44.19
2018-06-14T08:49:48.847Z,44.98
2018-06-14T08:52:19.325Z,44.92
2018-06-14T08:54:50.508Z,45.35
2018-06-14T08:57:21.309Z,45.29
2018-06-14T08:59:52.099Z,44.99
2018-06-14T09:02:23.336Z,45.29
2018-06-14T09:04:53.929Z,44.11
2018-06-14T09:07:24.823Z,45.05
2018-06-14T09:09:55.813Z,45.65
2018-06-14T09:12:27.014Z,43.92
2018-06-14T09:14:58.945Z,44.36
2018-06-14T09:17:29.869Z,43.45
2018-06-14T09:20:00.589Z,43.87
2018-06-14T09:22:31.710Z,42.34
2018-06-14T09:25:02.477Z,42.68
2018-06-14T09:27:34.277Z,42.81
2018-06-14T09:30:05.287Z,41.81
2018-06-14T09:32:36.580Z,41.53
2018-06-14T09:35:08.082Z,40.52
2018-06-14T09:37:39.385Z,40.87
2018-06-14T09:40:10.438Z,41.51
2018-06-14T09:42:41.447Z,42.07
2018-06-14T09:45:12.663Z,40.98
2018-06-14T09:47:44.121Z,40.77
2018-06-14T09:50:15.526Z,39.57
2018-06-14T09:52:48.027Z,40.43
2018-06-14T09:55:19.149Z,41.88
2018-06-14T09:57:50.175Z,41.73
2018-06-14T10:00:21.484Z,40.26
2018-06-14T10:02:52.526Z,39.91
2018-06-14T10:05:24.160Z,38.46
2018-06-14T10:07:55.079Z,39.87
2018-06-14T10:10:25.951Z,40.66
2018-06-14T10:12:57.703Z,39.49
2018-06-14T10:15:29.756Z,40.52
2018-06-14T10:18:00.917Z,39.32
2018-06-14T10:20:31.543Z,38.59
2018-06-14T10:23:03.744Z,40.61
2018-06-14T10:25:34.754Z,39.63
2018-06-14T10:28:06.131Z,39.31
2018-06-14T10:30:37.157Z,40.11
2018-06-14T10:33:08.275Z,40.11
2018-06-14T10:35:39.355Z,40.44
2018-06-14T10:38:10.636Z,39.08
2018-06-14T10:40:41.974Z,39.08
2018-06-14T10:43:13.271Z,39.94
2018-06-14T10:45:44.093Z,40.76
2018-06-14T10:48:15.253Z,39.76
2018-06-14T10:50:46.300Z,41.62
2018-06-14T10:53:18.306Z,40.41
2018-06-14T10:55:49.349Z,41.19
2018-06-14T10:58:20.612Z,41.67
2018-06-14T11:00:51.837Z,39.80
2018-06-14T11:03:24.096Z,40.65
2018-06-14T11:05:55.446Z,39.43
2018-06-14T11:08:26.664Z,39.27
2018-06-14T11:10:57.797Z,39.71
2018-06-14T11:13:31.078Z,39.51
2018-06-14T11:16:02.333Z,39.20
2018-06-14T11:18:33.403Z,40.64
2018-06-14T11:21:04.588Z,40.29
2018-06-14T11:23:35.563Z,41.67
2018-06-14T11:26:06.743Z,42.54
2018-06-14T11:28:38.594Z,42.78
2018-06-14T11:31:09.759Z,42.70
2018-06-14T11:33:41.085Z,41.38
2018-06-14T11:36:12.176Z,43.05
2018-06-14T11:38:43.703Z,41.72
2018-06-14T11:41:14.834Z,42.33
2018-06-14T11:43:46.079Z,42.98
2018-06-14T11:46:16.843Z,42.26
2018-06-14T11:48:47.908Z,41.73
2018-06-14T11:51:19.815Z,41.39
2018-06-14T11:53:50.736Z,41.99
2018-06-14T11:56:22.419Z,40.59
2018-06-14T11:58:53.477Z,41.54
2018-06-14T12:01:24.619Z,41.04
2018-06-14T12:03:55.759Z,39.72
2018-06-14T12:06:26.906Z,40.21
2018-06-14T12:08:58.104Z,42.54
2018-06-14T12:11:29.864Z,40.53
2018-06-14T12:14:01.010Z,40.33
2018-06-14T12:16:33.032Z,41.01
2018-06-14T12:19:04.237Z,39.98
2018-06-14T12:21:36.618Z,41.32
2018-06-14T12:24:07.870Z,40.53
2018-06-14T12:26:38.903Z,41.54
2018-06-14T12:29:10.247Z,39.93
2018-06-14T12:31:41.436Z,38.97
2018-06-14T12:34:12.526Z,40.87
2018-06-14T12:36:43.766Z,39.29
2018-06-14T12:39:14.970Z,40.16
2018-06-14T12:41:46.264Z,38.28
2018-06-14T12:44:17.617Z,39.85
2018-06-14T12:46:48.866Z,37.63
2018-06-14T12:49:19.859Z,38.58
2018-06-14T12:51:51.226Z,38.15
2018-06-14T12:54:22.286Z,37.81
2018-06-14T12:56:53.345Z,36.37
2018-06-14T12:59:24.613Z,35.49
2018-06-14T13:01:55.906Z,37.85
2018-06-14T13:04:26.677Z,36.30
2018-06-14T13:06:57.672Z,35.61
2018-06-14T13:39:52.071Z,35.20
2018-06-14T13:42:23.221Z,35.02
2018-06-14T13:44:53.802Z,36.19
2018-06-14T13:47:25.163Z,37.51
2018-06-14T13:49:56.588Z,37.05
2018-06-14T13:52:27.560Z,37.37
2018-06-14T13:54:58.682Z,35.79
2018-06-14T13:57:29.710Z,36.94
2018-06-14T14:00:00.884Z,35.30
2018-06-14T14:02:31.663Z,35.42
2018-06-14T14:05:02.734Z,36.13
2018-06-14T14:07:33.949Z,35.88
2018-06-14T14:10:05.138Z,36.04
2018-06-14T14:12:36.233Z,35.89
2018-06-14T14:15:07.914Z,36.15
2018-06-14T14:17:38.882Z,35.87
2018-06-14T14:20:10.591Z,36.27
2018-06-14T14:22:41.751Z,35.55
2018-06-14T14:25:12.579Z,34.94
2018-06-14T14:27:43.585Z,35.42
2018-06-14T14:30:14.271Z,36.02
2018-06-14T14:32:45.883Z,35.76
2018-06-14T14:35:17.221Z,35.78
2018-06-14T14:37:48.814Z,37.04
2018-06-14T14:40:20.120Z,36.91
2018-06-14T14:42:51.681Z,37.23
2018-06-14T14:45:22.644Z,37.31
2018-06-14T14:47:53.420Z,36.62
2018-06-14T14:50:24.655Z,37.01
2018-06-14T14:52:55.684Z,36.68
2018-06-14T14:55:26.487Z,35.77
2018-06-14T14:57:57.846Z,37.94
2018-06-14T15:00:28.887Z,37.18
2018-06-14T15:02:59.949Z,37.55
2018-06-14T15:05:31.174Z,37.22
2018-06-14T15:08:03.230Z,37.28
2018-06-14T15:10:33.822Z,37.65
2018-06-14T15:13:04.713Z,36.12
2018-06-14T15:15:35.713Z,36.26
2018-06-14T15:18:06.668Z,37.84
2018-06-14T15:20:37.772Z,38.50
2018-06-14T15:23:09.020Z,38.40
2018-06-14T15:25:40.097Z,39.16
2018-06-14T15:28:10.961Z,38.38
2018-06-14T15:30:42.023Z,39.14
2018-06-14T15:33:13.036Z,38.31
2018-06-14T15:35:44.051Z,38.54
2018-06-14T15:38:15.474Z,38.99
2018-06-14T15:40:46.684Z,39.36
2018-06-14T15:43:18.025Z,37.57
2018-06-14T15:45:49.111Z,38.50
2018-06-14T15:48:20.461Z,38.74
2018-06-14T15:50:51.294Z,37.63
2018-06-14T15:53:22.390Z,36.15
2018-06-14T15:56:09.240Z,36.79
2018-06-14T15:58:40.499Z,36.19
2018-06-14T16:01:11.733Z,36.31
2018-06-14T16:03:42.921Z,37.19
2018-06-14T16:06:13.609Z,36.47
2018-06-14T16:08:44.714Z,36.96
2018-06-14T16:11:15.867Z,37.74
2018-06-14T16:13:46.894Z,36.63
2018-06-14T16:16:17.624Z,37.73
2018-06-14T16:18:49.109Z,36.80
2018-06-14T16:21:20.366Z,36.56
2018-06-14T16:23:51.678Z,36.68
2018-06-14T16:26:22.746Z,37.51
2018-06-14T16:28:53.892Z,37.64
2018-06-14T16:31:25.078Z,37.29
2018-06-14T16:33:56.198Z,36.14
2018-06-14T16:36:27.321Z,37.58
2018-06-14T16:38:58.431Z,36.98
2018-06-14T16:41:29.560Z,38.65
2018-06-14T16:44:01.432Z,40.03
2018-06-14T16:46:32.516Z,39.80
2018-06-14T16:49:03.594Z,39.64
2018-06-14T16:51:34.790Z,40.16
2018-06-14T16:54:06.147Z,41.38
2018-06-14T16:56:38.166Z,38.54
2018-06-14T16:59:09.293Z,39.04
2018-06-14T17:01:41.816Z,39.84
2018-06-14T17:04:13.052Z,37.93
2018-06-14T17:06:44.865Z,37.72
2018-06-14T17:09:16.266Z,37.87
2018-06-14T17:11:48.069Z,37.53
2018-06-14T17:14:19.791Z,39.29
2018-06-14T17:16:50.891Z,37.92
2018-06-14T17:19:22.823Z,37.87
2018-06-14T17:21:53.939Z,37.83
2018-06-14T17:24:24.990Z,39.27
2018-06-14T17:26:56.918Z,38.80
2018-06-14T17:29:28.084Z,39.74
2018-06-14T17:31:59.065Z,41.82
2018-06-14T17:34:30.194Z,42.40
2018-06-14T17:37:01.281Z,43.10
2018-06-14T17:39:32.296Z,44.34
2018-06-14T17:42:03.339Z,44.77
2018-06-14T17:44:34.542Z,45.06
2018-06-14T17:47:06.677Z,44.74
2018-06-14T17:49:37.301Z,45.77
2018-06-14T17:52:08.446Z,46.40
2018-06-14T17:54:39.428Z,45.70
2018-06-14T17:57:10.892Z,45.40
2018-06-14T17:59:42.005Z,44.47
2018-06-14T18:02:13.127Z,46.59
2018-06-14T18:04:44.230Z,47.37
2018-06-14T18:07:15.501Z,47.49
2018-06-14T18:09:46.527Z,47.86
2018-06-14T18:12:17.845Z,47.62
2018-06-14T18:14:49.080Z,47.27
2018-06-14T18:17:20.230Z,48.18
2018-06-14T18:19:51.300Z,48.44
2018-06-14T18:22:22.539Z,49.28
2018-06-14T18:24:53.862Z,49.86
2018-06-14T18:27:25.053Z,49.09
2018-06-14T18:29:56.342Z,49.10
2018-06-14T18:32:26.955Z,50.46
2018-06-14T18:34:57.521Z,50.84
2018-06-14T18:37:28.566Z,51.59
2018-06-14T18:39:59.804Z,51.63
2018-06-14T18:42:30.908Z,51.32
2018-06-14T18:45:02.063Z,51.32
2018-06-14T18:47:34.381Z,52.11
2018-06-14T18:50:05.477Z,52.05
2018-06-14T18:52:36.799Z,52.24
2018-06-14T18:55:07.921Z,52.15
2018-06-14T18:57:39.190Z,53.04
2018-06-14T19:00:10.496Z,53.03
2018-06-14T19:02:41.781Z,53.73
2018-06-14T19:05:13.872Z,55.46
2018-06-14T19:07:45.081Z,56.14
2018-06-14T19:10:16.318Z,56.64
2018-06-14T19:12:47.479Z,56.78
2018-06-14T19:15:18.676Z,57.51
2018-06-14T19:17:49.741Z,55.49
2018-06-14T19:20:20.960Z,54.12
2018-06-14T19:22:51.654Z,55.27
2018-06-14T19:25:22.756Z,56.30
2018-06-14T19:27:54.031Z,56.74
2018-06-14T19:30:25.661Z,57.50
2018-06-14T19:32:57.061Z,56.65
2018-06-14T19:35:28.164Z,57.11
2018-06-14T19:37:59.416Z,54.76
2018-06-14T19:40:30.578Z,54.79
2018-06-14T19:43:01.827Z,55.92
2018-06-14T19:45:33.166Z,55.85
2018-06-14T19:48:35.242Z,56.07
2018-06-14T19:51:06.601Z,57.70
2018-06-14T19:53:37.855Z,57.03
2018-06-14T19:56:09.187Z,57.23
2018-06-14T19:58:40.784Z,57.31
2018-06-14T20:01:11.970Z,57.06
2018-06-14T20:03:43.195Z,57.54
2018-06-14T20:06:14.492Z,59.08
2018-06-14T20:08:45.522Z,60.23
2018-06-14T20:11:16.937Z,59.86
2018-06-14T20:13:48.274Z,60.46
2018-06-14T20:16:19.431Z,61.28
2018-06-14T20:18:50.463Z,61.31
2018-06-14T20:21:21.607Z,61.97
2018-06-14T20:26:38.310Z,61.25
2018-06-14T20:29:09.666Z,60.96
2018-06-14T20:31:40.723Z,60.09
2018-06-14T20:34:12.916Z,61.19
2018-06-14T20:36:44.071Z,61.65
2018-06-14T20:39:15.304Z,61.97
2018-06-14T20:41:46.281Z,62.03
2018-06-14T20:44:17.150Z,62.08
2018-06-14T20:46:48.020Z,63.07
2018-06-14T20:49:18.898Z,63.10
2018-06-14T20:51:49.809Z,63.50
2018-06-14T20:54:20.756Z,63.56
2018-06-14T20:56:51.585Z,63.64
2018-06-14T20:59:23.700Z,62.11
2018-06-14T21:01:54.888Z,63.19
2018-06-14T21:04:26.065Z,63.08
2018-06-14T21:06:57.957Z,63.42
2018-06-14T21:09:29.891Z,63.58
2018-06-14T21:12:00.245Z,63.36
2018-06-14T21:14:31.213Z,63.32
2018-06-14T21:17:02.333Z,63.51
2018-06-14T21:19:33.165Z,64.51
2018-06-14T21:22:05.055Z,64.54
2018-06-14T21:24:35.844Z,65.02
2018-06-14T21:27:06.932Z,64.74
2018-06-14T21:29:37.752Z,63.58
2018-06-14T21:32:09.888Z,63.71
2018-06-14T21:34:40.975Z,62.25
2018-06-14T21:37:11.776Z,61.19
2018-06-14T21:39:42.534Z,61.19
2018-06-14T21:42:13.291Z,60.51
2018-06-14T21:44:44.095Z,59.63
2018-06-14T21:47:17.148Z,60.38
2018-06-14T21:49:48.017Z,60.42
2018-06-14T21:52:19.045Z,59.50
2018-06-14T21:54:49.860Z,60.09
2018-06-14T21:57:20.989Z,59.49
2018-06-14T21:59:51.728Z,59.64
2018-06-14T22:02:22.573Z,60.06
2018-06-14T22:04:53.351Z,60.12
2018-06-14T22:07:24.920Z,59.54
2018-06-14T22:09:56.468Z,59.39
2018-06-14T22:12:27.256Z,59.39
2018-06-14T22:14:58.104Z,59.04
2018-06-14T22:17:28.849Z,58.96
2018-06-14T22:19:59.589Z,58.28
2018-06-14T22:22:30.404Z,58.98
2018-06-14T22:25:01.174Z,59.47
2018-06-14T22:27:32.134Z,58.90
2018-06-14T22:30:03.021Z,58.89
2018-06-14T22:32:34.041Z,59.19
2018-06-14T22:35:29.378Z,59.07
2018-06-14T22:38:00.121Z,59.13
2018-06-14T22:40:32.052Z,58.95
2018-06-14T22:43:02.766Z,60.07
2018-06-14T22:45:33.545Z,60.01
2018-06-14T22:48:04.362Z,60.21
2018-06-14T22:50:51.397Z,60.83
2018-06-14T22:53:22.276Z,60.81
2018-06-14T22:55:53.092Z,59.90
2018-06-14T22:58:23.851Z,59.65
2018-06-14T23:01:35.869Z,59.34
2018-06-14T23:04:07.527Z,61.84
2018-06-14T23:06:38.258Z,63.93
2018-06-14T23:10:34.501Z,64.83
2018-06-14T23:13:05.864Z,66.53
2018-06-14T23:15:36.934Z,67.62
2018-06-14T23:18:07.795Z,67.40
2018-06-14T23:20:38.746Z,67.50
2018-06-14T23:23:10.183Z,67.60
2018-06-14T23:25:41.180Z,67.71
2018-06-14T23:28:11.948Z,67.61
2018-06-14T23:30:42.810Z,66.48
2018-06-14T23:33:13.892Z,66.60
2018-06-14T23:35:45.655Z,66.48
2018-06-14T23:38:16.426Z,66.42
2018-06-14T23:40:48.288Z,67.00
2018-06-14T23:43:19.120Z,66.56
2018-06-14T23:45:49.918Z,66.89
2018-06-14T23:48:20.666Z,65.79
2018-06-14T23:50:51.418Z,65.79
2018-06-14T23:53:22.421Z,66.17
2018-06-14T23:55:53.220Z,66.25
2018-06-14T23:58:23.998Z,66.06
